Time;durP1;ratioP1;P1;durP2;ratioP2;P2;SDS_P1;SDS_P2;PMS_P1;PMS_P2;Temp;Humidity;BMP_temperature;BMP_pressure;BME280_temperature;BME280_humidity;BME280_pressure;Samples;Min_cycle;Max_cycle;Signal;HPM_P1;HPM_P2
2023/07/04 00:01:48;;;;;;;;;7.00;7.00;;;;;-146.67;35.06;74579.78;5126861;27;61826;-85
2023/07/04 00:04:21;;;;;;;;;6.75;6.75;;;;;-146.67;35.07;74575.78;5113104;27;62118;-85
2023/07/04 00:06:50;;;;;;;;;9.00;7.00;;;;;-146.67;35.08;74579.78;5105519;27;62171;-85
2023/07/04 00:09:17;;;;;;;;;7.00;6.00;;;;;-146.67;35.14;74593.75;5112363;27;61764;-85
2023/07/04 00:11:43;;;;;;;;;3.75;3.00;;;;;-146.67;35.44;74595.75;5105946;27;61816;-85
2023/07/04 00:14:09;;;;;;;;;4.00;4.00;;;;;-146.67;35.36;74593.75;5105899;27;61789;-84
2023/07/04 00:16:35;;;;;;;;;8.00;5.25;;;;;-146.67;35.26;74587.75;5103967;27;63653;-85
2023/07/04 00:19:03;;;;;;;;;11.00;3.50;;;;;-146.67;35.48;74583.75;5105255;27;61793;-85
2023/07/04 00:21:30;;;;;;;;;7.00;3.50;;;;;-146.67;35.12;74585.75;5106094;27;61952;-85
2023/07/04 00:23:55;;;;;;;;;5.00;4.25;;;;;-146.67;35.29;74587.75;5104867;27;62256;-85
2023/07/04 00:26:23;;;;;;;;;4.00;4.00;;;;;-146.67;35.33;74589.75;5103768;27;63742;-85
2023/07/04 00:28:48;;;;;;;;;5.50;4.50;;;;;-146.67;35.24;74599.72;5105737;27;61768;-85
2023/07/04 00:31:19;;;;;;;;;7.50;5.50;;;;;-146.67;35.31;74595.75;5105199;27;61698;-85
2023/07/04 00:33:46;;;;;;;;;3.00;2.75;;;;;-146.67;35.49;74609.72;5104679;27;61785;-85
2023/07/04 00:36:16;;;;;;;;;3.75;3.75;;;;;-146.67;35.55;74615.72;5105090;27;61937;-85
2023/07/04 00:38:44;;;;;;;;;3.25;3.25;;;;;-146.67;35.52;74619.69;5105474;27;61760;-85
2023/07/04 00:41:13;;;;;;;;;5.00;4.00;;;;;-146.67;35.61;74615.72;5104088;27;61867;-85
2023/07/04 00:43:46;;;;;;;;;4.50;4.00;;;;;-146.67;35.32;74615.72;5105334;27;61867;-85
2023/07/04 00:46:15;;;;;;;;;3.50;3.00;;;;;-146.67;35.56;74627.69;5103339;27;63792;-85
2023/07/04 00:48:44;;;;;;;;;6.50;2.75;;;;;-146.67;35.80;74639.66;5104918;27;61712;-85
2023/07/04 00:51:21;;;;;;;;;3.50;3.50;;;;;-146.67;35.91;74647.66;5105658;27;61759;-85
2023/07/04 00:53:49;;;;;;;;;6.00;2.50;;;;;-146.67;36.08;74661.63;5105258;27;62045;-85
2023/07/04 00:56:15;;;;;;;;;5.00;4.00;;;;;-146.67;36.19;74663.63;5104840;27;61883;-85
2023/07/04 00:58:42;;;;;;;;;4.75;3.50;;;;;-146.67;36.10;74663.63;5103727;27;61755;-85
2023/07/04 01:01:08;;;;;;;;;2.00;2.00;;;;;-146.67;35.92;74667.63;5103767;27;61933;-85
2023/07/04 01:03:33;;;;;;;;;3.50;2.75;;;;;-146.67;36.45;74663.63;5105501;27;62114;-85
2023/07/04 01:06:11;;;;;;;;;2.25;2.25;;;;;-146.67;35.83;74663.63;5104432;27;61796;-85
2023/07/04 01:08:41;;;;;;;;;3.00;3.00;;;;;-146.67;36.23;74683.59;5104962;27;61824;-85
2023/07/04 01:11:15;;;;;;;;;6.25;5.00;;;;;-146.67;36.01;74693.56;5104844;27;61860;-85
2023/07/04 01:13:45;;;;;;;;;4.00;4.00;;;;;-146.67;36.23;74695.56;5103902;27;61767;-85
2023/07/04 01:16:14;;;;;;;;;2.75;2.75;;;;;-146.67;36.63;74705.53;5103023;27;63764;-85
2023/07/04 01:18:42;;;;;;;;;3.25;2.75;;;;;-146.67;36.34;74717.53;5104442;27;61733;-85
2023/07/04 01:21:10;;;;;;;;;2.75;1.50;;;;;-146.67;36.28;74717.53;5105064;27;62294;-86
2023/07/04 01:24:12;;;;;;;;;4.00;2.75;;;;;-146.67;36.40;74711.53;5105040;27;62065;-85
2023/07/04 01:26:41;;;;;;;;;2.00;2.00;;;;;-146.67;36.48;74715.53;5102569;27;63923;-86
2023/07/04 01:29:10;;;;;;;;;2.25;2.25;;;;;-146.67;36.54;74723.50;5104873;27;61858;-86
2023/07/04 01:31:36;;;;;;;;;2.50;2.50;;;;;-146.67;36.79;74717.53;5102963;27;62078;-86
2023/07/04 01:34:06;;;;;;;;;5.25;3.00;;;;;-146.67;36.42;74711.53;5103937;27;62289;-85
2023/07/04 01:36:37;;;;;;;;;1.00;1.00;;;;;-146.67;36.48;74715.53;5102586;27;63619;-86
2023/07/04 01:39:04;;;;;;;;;3.75;2.25;;;;;-146.67;36.72;74723.50;5103522;27;61865;-86
2023/07/04 01:41:30;;;;;;;;;6.00;3.00;;;;;-146.67;36.76;74745.47;5104033;27;61983;-85
2023/07/04 01:44:05;;;;;;;;;3.50;3.00;;;;;-146.67;36.85;74747.47;5103481;27;61920;-84
2023/07/04 01:46:32;;;;;;;;;2.00;2.00;;;;;-146.67;37.02;74753.47;5103887;27;62074;-85
2023/07/04 01:48:58;;;;;;;;;1.00;1.00;;;;;-146.67;36.73;74753.47;5103729;27;61752;-85
2023/07/04 01:51:29;;;;;;;;;3.00;3.00;;;;;-146.67;36.80;74759.47;5104760;27;61797;-85
2023/07/04 01:53:55;;;;;;;;;7.00;4.75;;;;;-146.67;36.71;74759.47;5120131;27;61925;-85
2023/07/04 01:56:20;;;;;;;;;4.75;3.75;;;;;-146.67;36.37;74721.53;5103495;27;62793;-85
2023/07/04 01:58:45;;;;;;;;;2.50;2.50;;;;;-146.67;36.91;74755.47;5104468;27;62052;-85
2023/07/04 02:01:11;;;;;;;;;3.75;3.75;;;;;-146.67;37.06;74759.47;5104455;27;61841;-85
2023/07/04 02:03:37;;;;;;;;;4.25;4.00;;;;;-146.67;37.47;74765.44;5102860;27;61799;-85
2023/07/04 02:06:02;;;;;;;;;5.00;5.00;;;;;-146.67;37.34;74767.44;5103874;27;62380;-85
2023/07/04 02:08:28;;;;;;;;;4.75;4.00;;;;;-146.67;37.32;74777.44;5104429;27;61958;-86
2023/07/04 02:10:53;;;;;;;;;4.00;2.25;;;;;-146.67;37.54;74795.41;5095698;27;62244;-85
2023/07/04 02:13:19;;;;;;;;;3.00;3.00;;;;;-146.67;37.62;74799.38;5104566;27;61706;-86
2023/07/04 02:15:44;;;;;;;;;2.75;2.75;;;;;-146.67;37.86;74793.41;5101121;27;64698;-85
2023/07/04 02:18:09;;;;;;;;;4.00;4.00;;;;;-146.67;37.94;74799.38;5103659;27;61846;-85
2023/07/04 02:20:35;;;;;;;;;6.50;3.50;;;;;-146.67;37.44;74741.50;5104162;27;61834;-86
2023/07/04 02:23:00;;;;;;;;;3.50;2.00;;;;;-146.67;37.92;74811.38;5104233;27;61941;-85
2023/07/04 02:25:26;;;;;;;;;6.00;3.00;;;;;-146.67;38.32;74813.38;5101766;27;65152;-85
2023/07/04 02:27:51;;;;;;;;;5.00;3.00;;;;;-146.67;38.36;74825.34;5102291;27;61929;-85
2023/07/04 02:30:17;;;;;;;;;3.75;3.00;;;;;-146.67;38.20;74829.34;5104067;27;61769;-85
2023/07/04 02:32:42;;;;;;;;;4.00;3.00;;;;;-146.67;38.34;74829.34;5102690;27;62206;-85
2023/07/04 02:35:08;;;;;;;;;7.50;3.00;;;;;-146.67;38.55;74833.31;5103092;27;61772;-85
2023/07/04 02:37:33;;;;;;;;;2.50;2.25;;;;;-146.67;38.74;74835.31;5102660;27;61804;-85
2023/07/04 02:39:59;;;;;;;;;3.75;2.75;;;;;-146.67;38.41;74839.31;5101974;27;61856;-85
2023/07/04 02:42:24;;;;;;;;;4.75;3.25;;;;;-146.67;39.04;74839.31;5103989;27;61769;-85
2023/07/04 02:44:50;;;;;;;;;4.50;3.00;;;;;-146.67;39.04;74843.31;5101980;27;63652;-85
2023/07/04 02:47:17;;;;;;;;;8.00;5.50;;;;;-146.67;39.07;74847.31;5102916;27;61955;-85
2023/07/04 02:49:43;;;;;;;;;2.50;2.00;;;;;-146.67;39.12;74835.31;5103633;27;61739;-85
2023/07/04 02:52:08;;;;;;;;;5.25;4.25;;;;;-146.67;39.03;74827.34;5103927;27;61716;-85
2023/07/04 02:54:34;;;;;;;;;6.25;5.00;;;;;-146.67;38.90;74821.34;5101183;27;64103;-85
2023/07/04 02:56:59;;;;;;;;;5.25;3.25;;;;;-146.67;38.96;74821.34;5102005;27;61757;-85
2023/07/04 02:59:25;;;;;;;;;4.00;4.00;;;;;-146.67;38.99;74811.38;5103753;27;61731;-86
2023/07/04 03:01:52;;;;;;;;;7.00;3.00;;;;;-146.67;38.13;74731.50;5103440;27;61710;-85
2023/07/04 03:04:17;;;;;;;;;3.50;3.50;;;;;-146.67;37.92;74709.53;5101469;27;64470;-85
2023/07/04 03:06:42;;;;;;;;;6.25;3.25;;;;;-146.67;37.89;74695.56;5103327;27;61690;-85
2023/07/04 03:09:08;;;;;;;;;3.25;3.25;;;;;-146.67;37.84;74709.53;5101454;27;61831;-84
2023/07/04 03:11:33;;;;;;;;;4.25;2.25;;;;;-146.67;37.92;74689.56;5103360;27;61935;-85
2023/07/04 03:13:58;;;;;;;;;4.00;4.00;;;;;-146.67;37.63;74675.59;5101422;27;63506;-86
2023/07/04 03:16:24;;;;;;;;;5.00;5.00;;;;;-146.67;37.39;74657.63;5102987;27;62028;-86
2023/07/04 03:18:49;;;;;;;;;2.50;1.75;;;;;-146.67;37.67;74669.63;5101889;27;61790;-86
2023/07/04 03:21:15;;;;;;;;;4.75;3.50;;;;;-146.67;37.26;74655.63;5103509;27;61872;-86
2023/07/04 03:23:40;;;;;;;;;2.50;2.50;;;;;-146.67;37.01;74649.66;5102463;27;61861;-85
2023/07/04 03:26:06;;;;;;;;;4.75;3.25;;;;;-146.67;37.31;74657.63;5101826;27;62046;-86
2023/07/04 03:28:31;;;;;;;;;5.00;4.00;;;;;-146.67;37.41;74669.63;5102002;27;62043;-86
2023/07/04 03:30:57;;;;;;;;;4.75;3.75;;;;;-146.67;37.38;74683.59;5101563;27;61825;-85
2023/07/04 03:33:22;;;;;;;;;7.50;5.50;;;;;-146.67;37.27;74667.63;5102412;27;62597;-85
2023/07/04 03:35:48;;;;;;;;;5.50;4.50;;;;;-146.67;37.13;74665.63;5101598;27;61849;-85
2023/07/04 03:38:13;;;;;;;;;7.00;4.75;;;;;-146.67;37.35;74655.63;5102384;27;61847;-86
2023/07/04 03:40:39;;;;;;;;;3.00;3.00;;;;;-146.67;37.12;74649.66;5103116;27;61872;-86
2023/07/04 03:43:04;;;;;;;;;3.50;2.50;;;;;-146.67;36.99;74659.63;5102293;27;61869;-85
2023/07/04 03:45:30;;;;;;;;;3.00;2.00;;;;;-146.67;37.08;74651.66;5101406;27;62332;-85
2023/07/04 03:47:55;;;;;;;;;3.00;3.00;;;;;-146.67;36.92;74651.66;5100973;27;61805;-85
2023/07/04 03:50:20;;;;;;;;;5.50;2.25;;;;;-146.67;37.08;74653.63;5102967;27;61756;-86
2023/07/04 03:52:46;;;;;;;;;6.25;3.00;;;;;-146.67;36.99;74645.66;5101967;27;61996;-85
2023/07/04 03:55:11;;;;;;;;;6.50;3.25;;;;;-146.67;37.24;74669.63;5101190;27;61844;-85
2023/07/04 03:57:36;;;;;;;;;4.25;3.00;;;;;-146.67;37.05;74663.63;5102864;27;62358;-85
2023/07/04 04:00:05;;;;;;;;;3.50;3.25;;;;;-146.67;37.05;74649.66;5103215;27;61814;-85
2023/07/04 04:02:31;;;;;;;;;3.75;2.00;;;;;-146.67;37.09;74645.66;5101642;27;62701;-85
2023/07/04 04:04:56;;;;;;;;;4.00;3.00;;;;;-146.67;36.96;74645.66;5102715;27;61777;-85
2023/07/04 04:07:23;;;;;;;;;2.75;2.75;;;;;-146.67;36.93;74641.66;5100976;27;61968;-85
2023/07/04 04:09:49;;;;;;;;;4.00;3.00;;;;;-146.67;37.18;74641.66;5097992;27;62026;-85
2023/07/04 04:12:15;;;;;;;;;2.00;2.00;;;;;-146.67;36.87;74637.66;5101124;27;61765;-85
2023/07/04 04:14:40;;;;;;;;;5.00;3.00;;;;;-146.67;36.96;74627.69;5102315;27;61620;-85
2023/07/04 04:17:06;;;;;;;;;2.25;2.25;;;;;-146.67;36.86;74619.69;5102084;27;61669;-85
2023/07/04 04:19:31;;;;;;;;;2.00;2.00;;;;;-146.67;36.75;74617.69;5101325;27;62024;-85
2023/07/04 04:21:56;;;;;;;;;6.00;2.50;;;;;-146.67;36.91;74619.69;5100103;27;63921;-86
2023/07/04 04:24:22;;;;;;;;;4.25;3.00;;;;;-146.67;37.00;74629.69;5101022;27;61751;-85
2023/07/04 04:26:48;;;;;;;;;2.50;2.50;;;;;-146.67;37.18;74635.66;5102497;27;61723;-86
2023/07/04 04:29:17;;;;;;;;;6.00;4.00;;;;;-146.67;37.35;74631.69;5101151;27;61907;-86
2023/07/04 04:31:43;;;;;;;;;5.50;2.25;;;;;-146.67;37.21;74633.69;5101436;27;61771;-86
2023/07/04 04:34:09;;;;;;;;;4.00;3.00;;;;;-146.67;37.43;74641.66;5102133;27;61884;-86
2023/07/04 04:36:34;;;;;;;;;5.00;4.00;;;;;-146.67;37.73;74637.66;5102242;27;62218;-86
2023/07/04 04:39:01;;;;;;;;;7.00;3.00;;;;;-146.67;37.55;74641.66;5102901;27;61839;-86
2023/07/04 04:41:28;;;;;;;;;3.00;3.00;;;;;-146.67;37.52;74639.66;5103913;27;64725;-85
2023/07/04 04:43:57;;;;;;;;;2.50;2.50;;;;;-146.67;37.69;74629.69;5104034;27;61772;-85
2023/07/04 04:46:23;;;;;;;;;5.25;3.25;;;;;-146.67;37.50;74629.69;5105652;27;61972;-85
2023/07/04 04:48:49;;;;;;;;;6.00;3.00;;;;;-146.67;37.45;74623.69;5105180;27;62034;-85
2023/07/04 04:51:14;;;;;;;;;5.00;4.25;;;;;-146.67;37.44;74625.69;5103702;27;63654;-84
2023/07/04 04:53:44;;;;;;;;;5.00;3.50;;;;;-146.67;37.58;74621.69;5103908;27;61751;-85
2023/07/04 04:56:11;;;;;;;;;6.50;3.50;;;;;-146.67;37.67;74633.69;5105597;27;61860;-85
2023/07/04 04:58:37;;;;;;;;;3.25;2.50;;;;;-146.67;37.69;74633.69;5104343;27;61823;-85
2023/07/04 05:01:11;;;;;;;;;3.00;2.50;;;;;-146.67;37.55;74613.72;5104693;27;61895;-85
2023/07/04 05:03:36;;;;;;;;;8.75;4.00;;;;;-146.67;37.72;74613.72;5103644;27;61837;-85
2023/07/04 05:06:05;;;;;;;;;5.50;4.00;;;;;-146.67;37.46;74611.72;5105436;27;61793;-85
2023/07/04 05:08:31;;;;;;;;;5.00;4.00;;;;;-146.67;37.35;74617.69;5105620;27;61833;-85
2023/07/04 05:11:04;;;;;;;;;7.75;5.25;;;;;-146.67;37.65;74623.69;5103146;27;63780;-82
2023/07/04 05:13:34;;;;;;;;;6.50;4.00;;;;;-146.67;37.59;74607.72;5104106;27;61974;-87
2023/07/04 05:16:01;;;;;;;;;7.50;4.50;;;;;-146.67;37.37;74607.72;5103668;27;61888;-87
2023/07/04 05:18:28;;;;;;;;;3.50;3.50;;;;;-146.67;37.53;74599.72;5102432;27;62024;-84
2023/07/04 05:21:07;;;;;;;;;2.25;1.25;;;;;-146.67;37.67;74595.75;5103758;27;61940;-84
2023/07/04 05:23:38;;;;;;;;;3.00;3.00;;;;;-146.67;37.47;74595.75;5103497;27;61996;-85
2023/07/04 05:26:07;;;;;;;;;8.25;3.00;;;;;-146.67;37.41;74595.75;5105049;27;61894;-85
2023/07/04 05:28:34;;;;;;;;;2.75;2.25;;;;;-146.67;37.47;74587.75;5105272;27;61854;-84
2023/07/04 05:31:01;;;;;;;;;4.50;4.00;;;;;-146.67;37.39;74583.75;5102760;27;63872;-86
2023/07/04 05:33:27;;;;;;;;;3.00;3.00;;;;;-146.67;37.35;74581.75;5103318;27;61761;-84
2023/07/04 05:36:10;;;;;;;;;4.00;3.00;;;;;-146.67;37.33;74577.78;5104635;27;62190;-84
2023/07/04 05:38:37;;;;;;;;;5.75;3.75;;;;;-146.67;37.52;74567.78;5105121;27;61977;-84
2023/07/04 05:41:09;;;;;;;;;4.00;4.00;;;;;-146.67;37.18;74531.84;5102638;27;65157;-83
2023/07/04 05:43:35;;;;;;;;;4.50;3.00;;;;;-146.67;36.88;74489.94;5104890;27;61947;-83
2023/07/04 05:46:07;;;;;;;;;4.25;3.50;;;;;-146.67;36.45;74424.03;5102713;27;61784;-87
2023/07/04 05:48:34;;;;;;;;;6.50;3.25;;;;;-146.67;35.98;74396.09;5104097;27;62113;-83
2023/07/04 05:51:04;;;;;;;;;4.50;3.25;;;;;-146.67;35.46;74364.16;5103061;27;62032;-82
2023/07/04 05:53:34;;;;;;;;;4.50;3.00;;;;;-146.67;35.91;74394.09;5120367;27;61808;-80
2023/07/04 05:56:17;;;;;;;;;3.75;2.50;;;;;-146.67;35.48;74402.09;5104559;27;61944;-86
2023/07/04 05:58:45;;;;;;;;;5.25;3.25;;;;;-146.67;36.01;74412.06;5106054;27;61734;-94
2023/07/04 06:01:29;;;;;;;;;6.75;3.75;;;;;-146.67;36.08;74438.03;5102139;27;63658;-92
2023/07/04 06:03:55;;;;;;;;;4.75;3.00;;;;;-146.67;36.53;74448.00;5104999;27;62039;-92
2023/07/04 06:06:21;;;;;;;;;7.25;2.50;;;;;-146.67;36.45;74461.97;5113943;27;62053;-79
2023/07/04 06:08:49;;;;;;;;;7.50;3.50;;;;;-146.67;36.69;74471.97;5110540;27;62279;-81
2023/07/04 06:11:15;;;;;;;;;4.25;4.00;;;;;-146.67;36.99;74487.94;5103581;27;62162;-88
2023/07/04 06:13:41;;;;;;;;;5.75;2.75;;;;;-146.67;36.93;74475.94;5112116;27;61745;-80
2023/07/04 06:16:07;;;;;;;;;4.50;4.25;;;;;-146.67;37.11;74467.97;5103530;27;61775;-86
2023/07/04 06:18:33;;;;;;;;;4.00;4.00;;;;;-146.67;37.08;74463.97;5103841;27;61976;-83
2023/07/04 06:21:13;;;;;;;;;7.25;4.00;;;;;-146.67;36.91;74461.97;5102981;27;62227;-75
2023/07/04 06:23:39;;;;;;;;;5.25;3.75;;;;;-146.67;36.64;74440.00;5097463;27;62055;-85
2023/07/04 06:26:06;;;;;;;;;4.00;3.25;;;;;-146.67;36.49;74418.06;5101832;27;61876;-84
2023/07/04 06:28:33;;;;;;;;;9.00;4.75;;;;;-146.67;36.06;74338.19;5119625;27;61700;-84
2023/07/04 06:31:03;;;;;;;;;5.00;4.00;;;;;-146.67;34.84;74200.44;5102196;27;63455;-84
2023/07/04 06:33:29;;;;;;;;;4.25;3.75;;;;;-146.67;34.05;74146.56;5103481;27;61782;-84
2023/07/04 06:35:55;;;;;;;;;10.00;5.00;;;;;-146.67;33.85;74130.59;5101907;27;62824;-84
2023/07/04 06:38:21;;;;;;;;;6.50;3.50;;;;;-146.67;33.70;74104.63;5119232;27;62037;-84
2023/07/04 06:41:05;;;;;;;;;4.25;2.75;;;;;-146.67;34.14;74162.53;5102749;27;63232;-84
2023/07/04 06:43:32;;;;;;;;;7.50;2.50;;;;;-146.67;34.36;74196.47;5102196;27;61909;-83
2023/07/04 06:45:58;;;;;;;;;3.00;3.00;;;;;-146.67;34.33;74220.41;5101109;27;61699;-84
2023/07/04 06:48:25;;;;;;;;;5.75;5.00;;;;;-146.67;34.82;74248.38;5101517;27;61707;-83
2023/07/04 06:50:56;;;;;;;;;6.00;5.50;;;;;-146.67;35.01;74264.34;5103447;27;62178;-77
2023/07/04 06:53:21;;;;;;;;;7.50;5.00;;;;;-146.67;34.82;74296.28;5103508;27;61920;-76
2023/07/04 06:55:47;;;;;;;;;5.75;4.75;;;;;-146.67;35.07;74306.25;5102170;27;61920;-76
2023/07/04 06:58:14;;;;;;;;;7.00;5.75;;;;;-146.67;35.38;74330.22;5081762;27;61801;-76
2023/07/04 07:00:39;;;;;;;;;6.75;3.75;;;;;-146.67;35.44;74328.22;5082142;27;61832;-76
2023/07/04 07:03:05;;;;;;;;;8.00;2.50;;;;;-146.67;35.33;74306.25;5082460;27;61913;-81
2023/07/04 07:05:30;;;;;;;;;8.25;4.25;;;;;-146.67;34.76;74288.28;5080714;27;62153;-77
2023/07/04 07:07:56;;;;;;;;;7.50;2.50;;;;;-146.67;34.71;74288.28;5105708;27;61925;-78
2023/07/04 07:10:21;;;;;;;;;5.75;3.00;;;;;-146.67;34.62;74270.31;5114190;27;63378;-80
2023/07/04 07:12:46;;;;;;;;;4.75;3.00;;;;;-146.67;34.58;74276.31;5101957;27;61896;-76
2023/07/04 07:15:12;;;;;;;;;4.50;3.25;;;;;-146.67;34.47;74280.31;5103196;27;61904;-83
2023/07/04 07:17:38;;;;;;;;;4.75;4.00;;;;;-146.67;34.74;74284.28;5101490;27;62305;-84
2023/07/04 07:20:04;;;;;;;;;5.75;4.75;;;;;-146.67;35.04;74284.28;5102921;27;62716;-83
2023/07/04 07:22:29;;;;;;;;;3.75;3.50;;;;;-146.67;35.23;74284.28;5101805;27;62092;-84
2023/07/04 07:24:55;;;;;;;;;3.00;3.00;;;;;-146.67;35.05;74302.25;5103465;27;61926;-82
2023/07/04 07:27:20;;;;;;;;;4.00;3.00;;;;;-146.67;35.22;74300.28;5103746;27;61872;-77
2023/07/04 07:29:49;;;;;;;;;4.75;3.75;;;;;-146.67;35.01;74304.25;5101681;27;61932;-77
2023/07/04 07:32:14;;;;;;;;;7.00;5.75;;;;;-146.67;35.02;74286.28;5103150;27;62059;-77
2023/07/04 07:34:39;;;;;;;;;6.00;4.25;;;;;-146.67;35.17;74266.34;5102826;27;61726;-79
2023/07/04 07:37:06;;;;;;;;;4.50;3.75;;;;;-146.67;34.61;74246.38;5103005;27;61807;-78
2023/07/04 07:39:32;;;;;;;;;4.25;2.00;;;;;-146.67;34.69;74238.38;5101118;27;63796;-76
2023/07/04 07:41:59;;;;;;;;;7.50;5.75;;;;;-146.67;34.70;74228.41;5102468;27;61861;-77
2023/07/04 07:44:24;;;;;;;;;6.00;3.25;;;;;-146.67;34.50;74212.44;5102217;27;61733;-78
2023/07/04 07:46:50;;;;;;;;;5.25;4.75;;;;;-146.67;34.73;74204.44;5101100;27;62115;-77
2023/07/04 07:49:16;;;;;;;;;4.25;4.25;;;;;-146.67;34.25;74204.44;5100549;27;63820;-77
2023/07/04 07:51:41;;;;;;;;;6.00;3.50;;;;;-146.67;34.75;74192.47;5101473;27;61860;-77
2023/07/04 07:54:07;;;;;;;;;5.00;4.25;;;;;-146.67;34.53;74182.50;5101098;27;61836;-77
2023/07/04 07:56:39;;;;;;;;;6.25;3.00;;;;;-146.67;32.84;74172.50;5102800;27;62459;-77
2023/07/04 07:59:05;;;;;;;;;4.50;2.50;;;;;-146.67;33.21;74162.53;5100354;27;64005;-77
2023/07/04 08:01:33;;;;;;;;;4.50;3.00;;;;;-146.67;32.34;74156.53;5100845;27;62018;-77
2023/07/04 08:03:59;;;;;;;;;2.25;1.50;;;;;-146.67;31.88;74152.53;5101362;27;62097;-77
2023/07/04 08:06:29;;;;;;;;;2.50;2.50;;;;;-146.67;31.64;74144.56;5101367;27;62011;-77
2023/07/04 08:08:56;;;;;;;;;3.25;2.00;;;;;-146.67;31.92;74134.56;5101743;27;61846;-78
2023/07/04 08:11:23;;;;;;;;;3.50;2.50;;;;;-146.67;31.88;74134.56;5102619;27;61960;-77
2023/07/04 08:13:49;;;;;;;;;4.50;2.00;;;;;-146.67;31.69;74124.59;5086115;27;62052;-77
2023/07/04 08:16:21;;;;;;;;;4.25;3.00;;;;;-146.67;31.45;74122.59;5085594;27;61967;-77
2023/07/04 08:18:47;;;;;;;;;1.00;1.00;;;;;-146.67;31.06;74116.59;5083973;27;63622;-77
2023/07/04 08:21:13;;;;;;;;;1.00;1.00;;;;;-146.67;31.67;74114.63;5104510;27;61826;-77
2023/07/04 08:23:41;;;;;;;;;4.50;3.00;;;;;-146.67;31.54;74110.63;5105867;27;61725;-77
2023/07/04 08:26:06;;;;;;;;;5.00;2.25;;;;;-146.67;31.66;74110.63;5104906;27;61895;-77
2023/07/04 08:28:31;;;;;;;;;4.75;3.00;;;;;-146.67;31.85;74094.66;5103872;27;63404;-77
2023/07/04 08:31:05;;;;;;;;;2.75;1.00;;;;;-146.67;31.97;74084.66;5105772;27;61892;-78
2023/07/04 08:33:32;;;;;;;;;3.00;2.75;;;;;-146.67;32.32;74080.69;5105860;27;61809;-78
2023/07/04 08:36:00;;;;;;;;;2.25;2.00;;;;;-146.67;31.49;74076.69;5106021;27;61778;-77
2023/07/04 08:38:26;;;;;;;;;2.00;0.50;;;;;-146.67;30.99;74082.69;5105328;27;61969;-77
2023/07/04 08:40:52;;;;;;;;;2.25;2.25;;;;;-146.67;31.56;74074.69;5105231;27;61860;-76
2023/07/04 08:43:26;;;;;;;;;4.75;3.25;;;;;-146.67;31.67;74052.72;5105980;27;61700;-78
2023/07/04 08:45:52;;;;;;;;;5.50;4.00;;;;;-146.67;31.08;74032.75;5105409;27;61791;-78
2023/07/04 08:48:20;;;;;;;;;3.75;2.00;;;;;-146.67;31.59;74012.81;5104521;27;62970;-78
2023/07/04 08:50:48;;;;;;;;;4.25;3.00;;;;;-146.67;31.93;73998.84;5105703;27;62066;-78
2023/07/04 08:53:20;;;;;;;;;4.00;3.00;;;;;-146.67;31.93;73978.88;5104377;27;61840;-78
2023/07/04 08:56:01;;;;;;;;;2.75;1.75;;;;;-146.67;30.67;73958.91;5105256;27;61764;-77
2023/07/04 08:58:55;;;;;;;;;3.75;2.75;;;;;-146.67;30.28;73946.94;5103225;27;64050;-77
2023/07/04 09:01:56;;;;;;;;;3.00;1.75;;;;;-146.67;29.91;73934.94;5080924;27;61806;-78
2023/07/04 09:04:35;;;;;;;;;3.00;2.00;;;;;-146.67;29.74;73940.94;5105411;27;61960;-78
2023/07/04 09:07:22;;;;;;;;;4.00;2.75;;;;;-146.67;29.84;73938.94;5105451;27;61860;-77
2023/07/04 09:10:21;;;;;;;;;3.25;0.75;;;;;-146.67;29.89;73930.97;5096301;27;62962;-77
2023/07/04 09:12:48;;;;;;;;;3.25;1.50;;;;;-146.67;29.44;73909.00;5103687;27;61881;-77
2023/07/04 09:15:19;;;;;;;;;4.00;2.25;;;;;-146.67;29.60;73893.03;5103889;27;61981;-78
2023/07/04 09:18:08;;;;;;;;;4.75;4.00;;;;;-146.67;29.43;73869.09;5104537;27;61746;-77
2023/07/04 09:20:42;;;;;;;;;4.50;2.75;;;;;-146.67;29.28;73849.13;5102990;27;63897;-78
2023/07/04 09:23:13;;;;;;;;;3.50;3.50;;;;;-146.67;29.79;73853.13;5104944;27;61979;-77
2023/07/04 09:25:39;;;;;;;;;2.50;1.50;;;;;-146.67;29.44;73833.16;5104595;27;61820;-78
2023/07/04 09:28:05;;;;;;;;;4.75;3.75;;;;;-146.67;29.51;73827.16;5105218;27;61988;-78
2023/07/04 09:30:31;;;;;;;;;4.75;3.25;;;;;-146.67;29.47;73815.19;5104297;27;62594;-78
2023/07/04 09:32:57;;;;;;;;;2.50;1.25;;;;;-146.67;29.09;73801.22;5103260;27;61849;-78
2023/07/04 09:35:22;;;;;;;;;3.75;2.00;;;;;-146.67;29.12;73785.25;5104838;27;62035;-78
2023/07/04 09:38:02;;;;;;;;;4.50;3.00;;;;;-146.67;29.29;73751.31;5104766;27;61759;-77
2023/07/04 09:40:48;;;;;;;;;5.75;4.50;;;;;-146.67;29.31;73753.31;5103831;27;62862;-77
2023/07/04 09:43:33;;;;;;;;;3.00;3.00;;;;;-146.67;29.26;73757.31;5104666;27;61798;-77
2023/07/04 09:46:27;;;;;;;;;4.50;3.25;;;;;-146.67;29.09;73749.31;5104500;27;61720;-77
2023/07/04 09:48:55;;;;;;;;;6.75;4.00;;;;;-146.67;29.44;73741.34;5102730;27;61786;-77
2023/07/04 09:51:30;;;;;;;;;5.25;4.00;;;;;-146.67;29.47;73737.34;5104024;27;62692;-77
2023/07/04 09:54:12;;;;;;;;;4.00;4.00;;;;;-146.67;29.40;73717.38;5103956;27;62045;-77
2023/07/04 09:56:38;;;;;;;;;4.00;2.25;;;;;-146.67;29.38;73685.44;5103445;27;61964;-77
2023/07/04 09:59:14;;;;;;;;;7.75;2.25;;;;;-146.67;29.77;73741.34;5104438;27;62174;-77
2023/07/04 10:01:42;;;;;;;;;2.75;2.75;;;;;-146.67;29.69;73701.41;5103818;27;62094;-77
2023/07/04 10:04:09;;;;;;;;;5.67;2.67;;;;;-146.67;29.45;73623.56;5104447;27;62003;-77
2023/07/04 10:06:38;;;;;;;;;3.00;3.00;;;;;-146.67;28.70;73567.69;5104517;27;61990;-78
2023/07/04 10:09:19;;;;;;;;;3.67;2.67;;;;;-146.67;28.45;73541.72;5103749;27;62100;-78
2023/07/04 10:11:47;;;;;;;;;5.00;3.00;;;;;-146.67;28.24;73521.78;5102438;27;64195;-78
2023/07/04 10:14:15;;;;;;;;;7.00;4.00;;;;;-146.67;28.08;73507.78;5104193;27;61873;-78
2023/07/04 10:16:47;;;;;;;;;5.33;4.00;;;;;-146.67;28.02;73519.78;5104183;27;61741;-78
2023/07/04 10:19:16;;;;;;;;;2.00;2.00;;;;;-146.67;28.23;73509.78;5104020;27;62092;-78
2023/07/04 10:21:45;;;;;;;;;2.00;2.00;;;;;-146.67;28.07;73499.81;5103553;27;63207;-78
2023/07/04 10:24:16;;;;;;;;;3.33;3.00;;;;;-146.67;27.96;73477.84;5103696;27;62038;-78
2023/07/04 10:26:43;;;;;;;;;3.00;3.00;;;;;-146.67;28.00;73441.94;5102760;27;61976;-78
2023/07/04 10:29:09;;;;;;;;;6.33;3.67;;;;;-146.67;27.91;73429.97;5103976;27;61933;-78
2023/07/04 10:31:36;;;;;;;;;2.67;2.67;;;;;-146.67;28.13;73497.81;5101934;27;62550;-78
2023/07/04 10:34:06;;;;;;;;;5.00;2.67;;;;;-146.67;27.74;73417.97;5103805;27;62375;-78
2023/07/04 10:36:35;;;;;;;;;6.25;6.25;;;;;-146.67;27.82;73374.06;5102366;27;61942;-78
2023/07/04 10:39:09;;;;;;;;;8.33;5.00;;;;;-146.67;27.43;73356.09;5103454;27;61821;-78
2023/07/04 10:42:00;;;;;;;;;3.00;3.00;;;;;-146.67;27.61;73344.13;5103187;27;61781;-78
2023/07/04 10:44:30;;;;;;;;;2.33;2.33;;;;;-146.67;27.42;73334.16;5095185;27;62105;-78
2023/07/04 10:47:03;;;;;;;;;5.00;4.00;;;;;-146.67;27.41;73296.22;5103505;27;61759;-78
2023/07/04 10:49:35;;;;;;;;;4.67;4.00;;;;;-146.67;27.09;73268.28;5103887;27;61888;-77
2023/07/04 10:52:24;;;;;;;;;7.67;5.00;;;;;-146.67;26.59;73236.34;5102555;27;61931;-78
2023/07/04 10:54:50;;;;;;;;;6.33;6.00;;;;;-146.67;26.37;73244.34;5103680;27;61990;-78
2023/07/04 10:57:35;;;;;;;;;7.33;4.67;;;;;-146.67;27.16;73236.34;5103604;27;61898;-78
2023/07/04 11:00:33;;;;;;;;;5.00;5.00;;;;;-146.67;27.16;73252.31;5103822;27;61972;-78
2023/07/04 11:03:11;;;;;;;;;6.33;3.67;;;;;-146.67;27.24;73248.34;5102151;27;61923;-78
2023/07/04 11:05:49;;;;;;;;;7.33;3.67;;;;;-146.67;26.73;73240.34;5103205;27;61947;-79
2023/07/04 11:08:17;;;;;;;;;3.33;3.33;;;;;-146.67;27.22;73226.38;5103334;27;61982;-78
2023/07/04 11:10:48;;;;;;;;;6.00;4.67;;;;;-146.67;27.30;73204.44;5103528;27;61835;-78
2023/07/04 11:13:20;;;;;;;;;5.67;4.00;;;;;-146.67;27.12;73168.50;5102665;27;63134;-79
2023/07/04 11:16:05;;;;;;;;;6.00;5.00;;;;;-146.67;27.08;73130.59;5103214;27;62139;-79
2023/07/04 11:18:37;;;;;;;;;2.33;2.33;;;;;-146.67;26.65;73130.59;5102975;27;61852;-78
2023/07/04 11:21:13;;;;;;;;;3.00;3.00;;;;;-146.67;26.88;73146.53;5101506;27;61966;-79
2023/07/04 11:23:45;;;;;;;;;4.33;3.00;;;;;-146.67;26.97;73150.53;5102718;27;62149;-79
2023/07/04 11:26:11;;;;;;;;;5.33;4.00;;;;;-146.67;26.83;73128.59;5101601;27;61925;-79